»·PEaware :: N93G KBUR-KLAS

N93G :: KBUR-KLAS

FLIGHT INFORMATION

Flight Status: Arrived
Operator: Privately registered:
United States
More flights under this callsign
Pilot: Steven W. (29143)
Aircraft: CESSNA 172 SKYHAWK
(C172)
More flights by this aircraft type
Origin: KBUR Bob Hope-Burbank
United States
Destination: KLAS McCarran Intl
United States
More flights between these airports :: More routes between these airports
Route: +VNY3 DAG CRESO4
File this flight plan on PilotEdge
Remarks:
Altitude:
(Current/Filed)
11,000ft
Speed:
(Current/Filed)
110kts
Departed: 19-Nov-20 04:02 PM
Arrived: 19-Nov-20 05:47 PM
Distance/Time
Traveled:
194nm/1:44
Distance/Time
To Go:
Arrived

Flight Plot

Page will automatically refresh every two minutes.

Flight plan parsing failed; only flown route is shown


Map Options




Map Legend


Flown Route
Filed Route
Departure Airport
Arrival Airport
Navaid (VOR, NDB)
Fix

Horizontal Profiles

Position Reports

Time Latitude Longitude Heading Altitude Ground
Speed
19-Nov-20 15:26 34.199914 -118.363828 358 781ft 0kts
19-Nov-20 15:27 34.199914 -118.363828 358 781ft 0kts
19-Nov-20 15:28 34.199914 -118.363828 358 781ft 0kts
19-Nov-20 15:29 34.199914 -118.363828 358 781ft 0kts
19-Nov-20 15:30 34.199914 -118.363828 358 781ft 0kts
19-Nov-20 15:31 34.199914 -118.363828 358 781ft 0kts
19-Nov-20 15:32 34.199914 -118.363828 358 781ft 0kts
19-Nov-20 15:33 34.199914 -118.363828 358 781ft 0kts
19-Nov-20 15:34 34.199914 -118.363828 358 781ft 0kts
19-Nov-20 15:35 34.199914 -118.363828 358 781ft 0kts
19-Nov-20 15:36 34.199914 -118.363828 358 781ft 0kts
19-Nov-20 15:37 34.199914 -118.363828 358 781ft 0kts
19-Nov-20 15:38 34.199914 -118.363828 358 781ft 0kts
19-Nov-20 15:39 34.200057 -118.363739 77 781ft 3kts
19-Nov-20 15:40 34.200026 -118.363674 269 781ft 0kts
19-Nov-20 15:41 34.200026 -118.363674 269 781ft 0kts
19-Nov-20 15:42 34.200026 -118.363674 269 781ft 0kts
19-Nov-20 15:43 34.200026 -118.363674 269 781ft 0kts
19-Nov-20 15:44 34.200026 -118.363674 269 781ft 0kts
19-Nov-20 15:45 34.200026 -118.363674 269 781ft 0kts
19-Nov-20 15:46 34.200026 -118.363674 269 781ft 0kts
19-Nov-20 15:47 34.200026 -118.363674 269 781ft 0kts
19-Nov-20 15:48 34.200026 -118.363674 269 781ft 0kts
19-Nov-20 15:49 34.200026 -118.363674 269 781ft 0kts
19-Nov-20 15:50 34.200026 -118.363674 269 781ft 0kts
19-Nov-20 15:51 34.200026 -118.363674 269 781ft 0kts
19-Nov-20 15:52 34.200026 -118.363674 269 781ft 0kts
19-Nov-20 15:53 34.200026 -118.363674 269 781ft 0kts
19-Nov-20 15:54 34.200026 -118.363674 269 781ft 0kts
19-Nov-20 15:55 34.200026 -118.363674 269 781ft 0kts
19-Nov-20 15:56 34.199580 -118.364571 186 781ft 6kts
19-Nov-20 15:57 34.199118 -118.367618 272 781ft 2kts
19-Nov-20 15:58 34.198810 -118.368963 192 781ft 0kts
19-Nov-20 15:59 34.198810 -118.368963 192 781ft 0kts
19-Nov-20 16:00 34.198333 -118.368934 162 781ft 13kts
19-Nov-20 16:01 34.193509 -118.353708 170 1265ft 64kts
19-Nov-20 16:02 34.181205 -118.369124 230 2049ft 69kts
19-Nov-20 16:03 34.170481 -118.387726 233 2806ft 68kts
19-Nov-20 16:04 34.159631 -118.406504 231 3506ft 69kts
19-Nov-20 16:05 34.162670 -118.425337 356 4171ft 85kts
19-Nov-20 16:06 34.185352 -118.421516 7 4855ft 78kts
19-Nov-20 16:07 34.207939 -118.417234 7 5481ft 88kts
19-Nov-20 16:08 34.233091 -118.410264 41 6086ft 98kts
19-Nov-20 16:09 34.254017 -118.389184 37 6759ft 96kts
19-Nov-20 16:10 34.274645 -118.371066 35 7438ft 86kts
19-Nov-20 16:11 34.293286 -118.354867 34 8000ft 84kts
19-Nov-20 16:12 34.312920 -118.337908 34 8503ft 89kts
19-Nov-20 16:13 34.333242 -118.320345 33 8999ft 91kts
19-Nov-20 16:14 34.353919 -118.302454 33 9493ft 91kts
19-Nov-20 16:15 34.374311 -118.284768 32 9984ft 88kts
19-Nov-20 16:16 34.393106 -118.268399 32 10458ft 76kts
19-Nov-20 16:17 34.411413 -118.252521 32 10795ft 78kts
19-Nov-20 16:18 34.431389 -118.235233 28 10993ft 97kts
19-Nov-20 16:19 34.456195 -118.213800 30 11047ft 122kts
19-Nov-20 16:20 34.484562 -118.189104 30 11091ft 127kts
19-Nov-20 16:21 34.513957 -118.163545 31 11093ft 131kts
19-Nov-20 16:22 34.543681 -118.137674 30 11093ft 132kts
19-Nov-20 16:23 34.573540 -118.111682 30 11094ft 132kts
19-Nov-20 16:24 34.603183 -118.085851 30 11095ft 132kts
19-Nov-20 16:25 34.628310 -118.053261 75 11015ft 139kts
19-Nov-20 16:26 34.633975 -118.006909 80 11014ft 138kts
19-Nov-20 16:27 34.639067 -117.960619 81 11011ft 138kts
19-Nov-20 16:28 34.644096 -117.914227 81 11008ft 138kts
19-Nov-20 16:29 34.649092 -117.867927 80 11005ft 138kts
19-Nov-20 16:30 34.654079 -117.821542 80 11002ft 138kts
19-Nov-20 16:31 34.659028 -117.775350 80 11005ft 138kts
19-Nov-20 16:32 34.668794 -117.730467 70 11007ft 137kts
19-Nov-20 16:34 34.680026 -117.686086 70 11010ft 137kts
19-Nov-20 16:35 34.691329 -117.641748 70 11014ft 137kts
19-Nov-20 16:36 34.702607 -117.597505 70 11018ft 137kts
19-Nov-20 16:37 34.713863 -117.553281 70 11018ft 137kts
19-Nov-20 16:38 34.725159 -117.508840 70 11018ft 137kts
19-Nov-20 16:39 34.736399 -117.464541 70 11019ft 137kts
19-Nov-20 16:40 34.747615 -117.420262 70 11019ft 137kts
19-Nov-20 16:41 34.758867 -117.375767 70 11019ft 137kts
19-Nov-20 16:42 34.770082 -117.331341 70 11016ft 137kts
19-Nov-20 16:43 34.781214 -117.287165 70 11014ft 137kts
19-Nov-20 16:44 34.792406 -117.242672 70 11011ft 137kts
19-Nov-20 16:45 34.803516 -117.198426 70 11008ft 137kts
19-Nov-20 16:46 34.814642 -117.154036 70 11003ft 137kts
19-Nov-20 16:47 34.825748 -117.109652 70 10999ft 137kts
19-Nov-20 16:48 34.836871 -117.065121 70 10996ft 137kts
19-Nov-20 16:49 34.847940 -117.020736 70 10993ft 137kts
19-Nov-20 16:49 34.857195 -116.983567 70 10992ft 137kts
19-Nov-20 16:51 34.870163 -116.931397 70 10990ft 138kts
19-Nov-20 16:51 34.879415 -116.894113 70 10990ft 138kts
19-Nov-20 16:53 34.892374 -116.841797 70 10990ft 138kts
19-Nov-20 16:53 34.901552 -116.804689 70 11012ft 138kts
19-Nov-20 16:54 34.912686 -116.759591 70 11010ft 139kts
19-Nov-20 16:55 34.923857 -116.714264 70 11011ft 139kts
19-Nov-20 16:56 34.935020 -116.668894 70 11011ft 140kts
19-Nov-20 16:57 34.946240 -116.623206 70 11011ft 140kts
19-Nov-20 16:58 34.957939 -116.577752 60 11012ft 139kts
19-Nov-20 16:59 34.975789 -116.535825 57 11013ft 139kts
19-Nov-20 17:00 34.994210 -116.494036 56 11015ft 140kts
19-Nov-20 17:01 35.012849 -116.452086 60 11019ft 142kts
19-Nov-20 17:02 35.031847 -116.408983 60 11021ft 145kts
19-Nov-20 17:03 35.051034 -116.365551 59 11022ft 146kts
19-Nov-20 17:04 35.070676 -116.321946 59 11019ft 145kts
19-Nov-20 17:05 35.090799 -116.279111 58 11019ft 145kts
19-Nov-20 17:06 35.111539 -116.236878 58 11017ft 145kts
19-Nov-20 17:07 35.131628 -116.194022 58 11018ft 145kts
19-Nov-20 17:08 35.151158 -116.151005 60 11018ft 145kts
19-Nov-20 17:09 35.170371 -116.107457 60 11018ft 145kts
19-Nov-20 17:10 35.189438 -116.063982 60 11018ft 145kts
19-Nov-20 17:11 35.208455 -116.020521 60 11018ft 145kts
19-Nov-20 17:12 35.227564 -115.976788 60 11019ft 145kts
19-Nov-20 17:13 35.246565 -115.933247 60 11019ft 145kts
19-Nov-20 17:14 35.265634 -115.889502 60 11020ft 145kts
19-Nov-20 17:15 35.284653 -115.845811 61 11022ft 145kts
19-Nov-20 17:16 35.303701 -115.801988 61 11024ft 145kts
19-Nov-20 17:17 35.328013 -115.762965 41 11027ft 143kts
19-Nov-20 17:18 35.354342 -115.727707 40 11027ft 138kts
19-Nov-20 17:19 35.380401 -115.692895 40 10969ft 143kts
19-Nov-20 17:20 35.408363 -115.655430 41 10502ft 147kts
19-Nov-20 17:21 35.435213 -115.619390 40 10078ft 139kts
19-Nov-20 17:22 35.459699 -115.586536 39 10033ft 125kts
19-Nov-20 17:23 35.484083 -115.553958 41 10033ft 132kts
19-Nov-20 17:24 35.509054 -115.520406 41 10033ft 133kts
19-Nov-20 17:25 35.534144 -115.486684 41 10033ft 133kts
19-Nov-20 17:26 35.559122 -115.453077 41 10033ft 133kts
19-Nov-20 17:27 35.584213 -115.419303 41 10033ft 133kts
19-Nov-20 17:28 35.609201 -115.385625 41 10034ft 133kts
19-Nov-20 17:29 35.634479 -115.352029 40 10034ft 133kts
19-Nov-20 17:30 35.659898 -115.318309 41 10031ft 137kts
19-Nov-20 17:31 35.685664 -115.283516 41 10030ft 137kts
19-Nov-20 17:32 35.711439 -115.248676 41 10030ft 137kts
19-Nov-20 17:33 35.741715 -115.223160 15 9818ft 134kts
19-Nov-20 17:34 35.777602 -115.205752 15 9285ft 143kts
19-Nov-20 17:35 35.815093 -115.188160 15 8679ft 144kts
19-Nov-20 17:36 35.851227 -115.171461 15 8067ft 132kts
19-Nov-20 17:37 35.884167 -115.156172 15 8026ft 124kts
19-Nov-20 17:38 35.916395 -115.141066 15 8025ft 124kts
19-Nov-20 17:39 35.949607 -115.128626 5 7823ft 129kts
19-Nov-20 17:40 35.985511 -115.121149 5 7215ft 127kts
19-Nov-20 17:41 36.020011 -115.114359 5 6604ft 124kts
19-Nov-20 17:42 36.054523 -115.111528 332 5789ft 130kts
19-Nov-20 17:43 36.080840 -115.139727 333 4078ft 122kts
19-Nov-20 17:44 36.108885 -115.138601 17 3375ft 84kts
19-Nov-20 17:45 36.108626 -115.151315 204 2376ft 68kts
19-Nov-20 17:46 36.093896 -115.159733 214 2104ft 28kts
19-Nov-20 17:47 36.089125 -115.163282 284 2128ft 0kts
19-Nov-20 17:48 36.089081 -115.163575 296 2129ft 0kts
19-Nov-20 17:49 36.089435 -115.163840 317 2130ft 7kts
19-Nov-20 17:50 36.092464 -115.162959 24 2118ft 39kts
19-Nov-20 17:51 36.097882 -115.160569 313 2099ft 16kts
19-Nov-20 17:52 36.098722 -115.161375 322 2102ft 0kts

Navigation Log

Ident Type
Flight plan parsing failed, navigation log unavailable